Busy Bee — BUSYB — position and weather

sailwx.info

Track history (hours):
 
Tides and Currents Weather Stations Pressure Air Temp Water Temp Dewpoint Dewpoint Depression Visibility Wind Speed Wind Dir Waves Ship Positions

Busy Bee

Last reported at 2016-Jul-23 11:13 UTC. Time now 2016-Jul-25 15:51 UTC.
Position N 34°42' E 135°20'.

Length 15 m.

Type: Sailing vessel. MMSI: 431002814.

Date/timePositionNaut miles runAvg speedWind from/ knotsBaromVisibWave heightAir tempDewpointWater temp
2016-Jul-23 11:13N 34°42' E 135°20'4 6.2
2016-Jul-23 10:33N 34°39' E 135°17'2 2.2
2016-Jul-23 09:30N 34°38' E 135°14'0 0.2
2016-Jul-23 08:26N 34°38' E 135°15'3 3.0
2016-Jul-23 07:31N 34°40' E 135°17'  
2016-Jul-20 09:33N 34°42' E 135°20'7 7.0
2016-Jul-20 08:33N 34°37' E 135°14'6 6.0
2016-Jul-20 07:32N 34°33' E 135°09'6 1.4
2016-Jul-20 03:30N 34°34' E 135°02'6 6.5
2016-Jul-20 02:33N 34°36' E 135°09'7 7.2
2016-Jul-20 01:32N 34°39' E 135°17'  
Track history (hours):
 
Tides and Currents Weather Stations Pressure Air Temp Water Temp Dewpoint Dewpoint Depression Visibility Wind Speed Wind Dir Waves Ship Positions

Busy Bee

Last reported at 2016-Jul-23 11:13 UTC. Time now 2016-Jul-25 15:51 UTC.
Position N 34°42' E 135°20'.

Length 15 m.

Type: Sailing vessel. MMSI: 431002814.

Date/timePositionNaut miles runAvg speedWind from/ knotsBaromVisibWave heightAir tempDewpointWater temp
2016-Jul-23 11:13N 34°42' E 135°20'4 6.2
2016-Jul-23 10:33N 34°39' E 135°17'2 2.2
2016-Jul-23 09:30N 34°38' E 135°14'0 0.2
2016-Jul-23 08:26N 34°38' E 135°15'3 3.0
2016-Jul-23 07:31N 34°40' E 135°17'  
2016-Jul-20 09:33N 34°42' E 135°20'7 7.0
2016-Jul-20 08:33N 34°37' E 135°14'6 6.0
2016-Jul-20 07:32N 34°33' E 135°09'6 1.4
2016-Jul-20 03:30N 34°34' E 135°02'6 6.5
2016-Jul-20 02:33N 34°36' E 135°09'7 7.2
2016-Jul-20 01:32N 34°39' E 135°17'  

Dump ship's entire track history